Time;durP1;ratioP1;P1;durP2;ratioP2;P2;SDS_P1;SDS_P2;PMS_P1;PMS_P2;Temp;Humidity;BMP_temperature;BMP_pressure;BME280_temperature;BME280_humidity;BME280_pressure;Samples;Min_cycle;Max_cycle;Signal;HPM_P1;HPM_P2
2022/11/10 00:00:41;;;;;;;0.55;0.55;;;;;;;14.94;100.00;99166.13;5092692;28;20111;-48
2022/11/10 00:03:08;;;;;;;0.25;0.25;;;;;;;14.88;100.00;99161.69;5091334;28;20020;-47
2022/11/10 00:05:36;;;;;;;0.00;0.00;;;;;;;14.56;100.00;99167.81;5091522;28;20135;-47
2022/11/10 00:08:06;;;;;;;0.65;0.65;;;;;;;14.30;100.00;99173.25;5091273;28;20032;-47
2022/11/10 00:10:32;;;;;;;0.03;0.03;;;;;;;14.15;100.00;99171.72;5091525;28;20027;-48
2022/11/10 00:13:02;;;;;;;0.03;0.03;;;;;;;14.06;100.00;99172.16;5092451;28;20028;-48
2022/11/10 00:18:12;;;;;;;0.00;0.00;;;;;;;13.92;100.00;99177.53;5092726;28;20031;-48
2022/11/10 00:20:37;;;;;;;0.00;0.00;;;;;;;13.89;100.00;99175.28;5092324;28;20020;-48
2022/11/10 00:23:03;;;;;;;1.50;0.95;;;;;;;14.11;100.00;99180.28;5092037;28;20082;-48
2022/11/10 00:25:30;;;;;;;0.22;0.22;;;;;;;14.39;100.00;99185.19;5074157;28;20020;-48
2022/11/10 00:27:58;;;;;;;0.20;0.20;;;;;;;14.60;100.00;99184.06;5090876;28;20035;-47
2022/11/10 00:30:25;;;;;;;0.38;0.38;;;;;;;14.81;100.00;99179.44;5092200;28;20020;-48
2022/11/10 00:32:50;;;;;;;0.30;0.30;;;;;;;15.01;100.00;99184.56;5090958;28;20159;-48
2022/11/10 00:35:16;;;;;;;0.10;0.10;;;;;;;15.21;100.00;99184.38;5091084;28;20131;-48
2022/11/10 00:37:42;;;;;;;1.33;1.23;;;;;;;15.30;100.00;99194.47;5090831;28;20115;-48
2022/11/10 00:40:08;;;;;;;0.43;0.32;;;;;;;15.32;100.00;99196.88;5092048;28;20396;-48
2022/11/10 00:42:34;;;;;;;0.57;0.57;;;;;;;15.31;100.00;99193.44;5092237;28;20524;-48
2022/11/10 00:44:59;;;;;;;0.82;0.82;;;;;;;15.41;100.00;99200.03;5090856;28;20103;-48
2022/11/10 00:47:25;;;;;;;0.08;0.08;;;;;;;15.53;100.00;99207.06;5090558;28;20024;-47
2022/11/10 00:49:51;;;;;;;0.90;0.90;;;;;;;15.71;100.00;99206.22;5090629;28;20030;-48
2022/11/10 00:52:16;;;;;;;0.10;0.10;;;;;;;15.67;100.00;99204.25;5090599;28;20032;-48
2022/11/10 00:54:42;;;;;;;0.20;0.20;;;;;;;15.58;100.00;99211.69;5092161;28;20028;-45
2022/11/10 00:57:08;;;;;;;0.60;0.60;;;;;;;15.37;100.00;99207.59;5073703;28;20115;-45
2022/11/10 00:59:33;;;;;;;0.10;0.10;;;;;;;15.21;99.97;99210.81;5091800;28;20039;-46
2022/11/10 01:01:59;;;;;;;0.43;0.22;;;;;;;15.05;99.83;99214.81;5091863;28;20448;-47
2022/11/10 01:04:24;;;;;;;1.05;0.35;;;;;;;14.97;100.00;99211.44;5091890;28;20103;-48
2022/11/10 01:06:51;;;;;;;0.93;0.90;;;;;;;14.94;100.00;99224.25;5090534;28;20028;-48
2022/11/10 01:09:17;;;;;;;0.22;0.22;;;;;;;14.86;100.00;99227.16;5092054;28;20445;-48
2022/11/10 01:11:42;;;;;;;1.45;1.35;;;;;;;14.80;100.00;99226.19;5090567;28;20062;-48
2022/11/10 01:14:08;;;;;;;0.00;0.00;;;;;;;14.86;100.00;99224.53;5091984;28;20058;-48
2022/11/10 01:16:34;;;;;;;0.95;0.95;;;;;;;14.82;100.00;99226.78;5091737;28;20555;-47
2022/11/10 01:19:01;;;;;;;0.47;0.43;;;;;;;14.72;100.00;99235.19;5091705;28;20012;-48
2022/11/10 01:21:28;;;;;;;0.22;0.22;;;;;;;14.76;100.00;99236.38;5091433;28;20069;-48
2022/11/10 01:23:54;;;;;;;0.10;0.10;;;;;;;14.86;100.00;99237.75;5091724;28;20036;-48
2022/11/10 01:26:21;;;;;;;0.05;0.05;;;;;;;15.04;100.00;99231.72;5090322;28;20024;-48
2022/11/10 01:28:47;;;;;;;0.00;0.00;;;;;;;15.14;100.00;99239.97;5091738;28;20020;-48
2022/11/10 01:31:16;;;;;;;0.25;0.20;;;;;;;15.24;100.00;99240.28;5091650;28;20024;-48
2022/11/10 01:33:42;;;;;;;0.13;0.13;;;;;;;15.33;100.00;99252.22;5093820;28;20041;-48
2022/11/10 01:36:09;;;;;;;0.00;0.00;;;;;;;15.42;100.00;99255.38;5094263;28;20027;-48
2022/11/10 01:38:38;;;;;;;0.40;0.40;;;;;;;15.48;100.00;99251.06;5095537;28;20020;-48
2022/11/10 01:41:06;;;;;;;0.32;0.32;;;;;;;15.44;100.00;99253.31;5095449;28;20051;-48
2022/11/10 01:43:33;;;;;;;0.00;0.00;;;;;;;15.49;100.00;99260.59;5094143;28;20059;-48
2022/11/10 01:46:01;;;;;;;0.17;0.17;;;;;;;15.51;100.00;99258.53;5095154;28;20031;-48
2022/11/10 01:48:51;;;;;;;0.10;0.10;;;;;;;15.44;100.00;99263.09;5095555;28;20044;-48
2022/11/10 01:51:24;;;;;;;0.20;0.20;;;;;;;15.36;100.00;99257.06;5095294;28;20045;-47
2022/11/10 01:53:55;;;;;;;0.10;0.10;;;;;;;15.45;100.00;99265.50;5093835;28;20023;-47
2022/11/10 01:56:23;;;;;;;0.80;0.80;;;;;;;15.33;100.00;99262.78;5093860;28;20035;-48
2022/11/10 01:58:58;;;;;;;0.38;0.38;;;;;;;15.24;100.00;99258.78;5095123;28;20028;-48
2022/11/10 02:01:24;;;;;;;1.80;0.25;;;;;;;15.13;99.80;99255.03;5077428;28;20017;-48
2022/11/10 02:03:54;;;;;;;1.27;0.40;;;;;;;14.96;99.45;99262.66;5093641;28;20563;-48
2022/11/10 02:06:25;;;;;;;1.45;1.35;;;;;;;15.03;100.00;99264.44;5093512;28;20023;-48
2022/11/10 02:08:51;;;;;;;0.52;0.52;;;;;;;15.16;100.00;99267.78;5094966;28;20038;-48
2022/11/10 02:11:18;;;;;;;0.20;0.20;;;;;;;15.27;100.00;99266.31;5093554;28;20027;-48
2022/11/10 02:13:43;;;;;;;0.73;0.73;;;;;;;15.41;100.00;99271.47;5095123;28;20040;-48
2022/11/10 02:16:09;;;;;;;0.00;0.00;;;;;;;15.49;100.00;99266.72;5094745;28;20404;-48
2022/11/10 02:18:36;;;;;;;3.30;0.90;;;;;;;15.60;100.00;99272.31;5094760;28;20024;-47
2022/11/10 02:21:06;;;;;;;0.65;0.43;;;;;;;15.72;100.00;99265.28;5093334;28;20016;-48
2022/11/10 02:23:35;;;;;;;0.10;0.10;;;;;;;15.75;100.00;99272.78;5094488;28;20052;-48
2022/11/10 02:26:05;;;;;;;0.20;0.20;;;;;;;15.72;100.00;99271.41;5094754;28;20090;-48
2022/11/10 02:28:37;;;;;;;0.00;0.00;;;;;;;15.67;100.00;99273.84;5094572;28;20028;-48
2022/11/10 02:31:04;;;;;;;1.55;1.00;;;;;;;15.60;100.00;99267.03;5093131;28;20020;-48
2022/11/10 02:33:32;;;;;;;0.00;0.00;;;;;;;15.52;100.00;99281.34;5094723;28;20075;-48
2022/11/10 02:35:58;;;;;;;0.13;0.13;;;;;;;15.33;100.00;99280.47;5094623;28;20103;-48
2022/11/10 02:38:23;;;;;;;0.25;0.25;;;;;;;15.29;100.00;99276.66;5094384;28;20560;-48
2022/11/10 02:40:49;;;;;;;0.00;0.00;;;;;;;15.27;100.00;99278.69;5092969;28;20020;-48
2022/11/10 02:43:17;;;;;;;0.30;0.30;;;;;;;15.07;100.00;99286.78;5094215;28;20405;-48
2022/11/10 02:45:43;;;;;;;0.00;0.00;;;;;;;15.16;100.00;99278.38;5091485;28;20028;-48
2022/11/10 02:48:10;;;;;;;0.73;0.73;;;;;;;15.12;100.00;99282.47;5092787;28;20032;-48
2022/11/10 02:50:36;;;;;;;1.65;0.65;;;;;;;15.14;100.00;99288.34;5092802;28;20039;-48
2022/11/10 02:53:02;;;;;;;0.17;0.17;;;;;;;15.29;100.00;99292.50;5094073;28;20019;-48
2022/11/10 02:55:28;;;;;;;0.00;0.00;;;;;;;15.34;100.00;99287.41;5093994;28;20059;-48
2022/11/10 02:57:53;;;;;;;0.30;0.30;;;;;;;15.53;100.00;99289.06;5093998;28;20039;-53
2022/11/10 03:00:19;;;;;;;0.00;0.00;;;;;;;15.62;100.00;99286.13;5092619;28;20027;-48
2022/11/10 03:02:45;;;;;;;0.00;0.00;;;;;;;15.61;100.00;99284.50;5092584;28;20028;-48
2022/11/10 03:05:11;;;;;;;0.08;0.08;;;;;;;15.70;100.00;99291.16;5093755;28;20428;-47
2022/11/10 03:07:37;;;;;;;0.05;0.05;;;;;;;15.65;100.00;99291.78;5092515;28;20425;-48
2022/11/10 03:10:05;;;;;;;0.20;0.20;;;;;;;15.64;100.00;99298.13;5092388;28;20521;-48
2022/11/10 03:12:31;;;;;;;0.20;0.17;;;;;;;15.63;100.00;99309.72;5093689;28;20024;-48
2022/11/10 03:14:56;;;;;;;0.00;0.00;;;;;;;15.49;100.00;99306.41;5093650;28;20043;-48
2022/11/10 03:17:22;;;;;;;0.40;0.35;;;;;;;15.26;100.00;99308.81;5093581;28;20075;-48
2022/11/10 03:19:48;;;;;;;1.50;0.30;;;;;;;15.14;100.00;99312.16;5092229;28;20023;-48
2022/11/10 03:22:14;;;;;;;2.55;1.55;;;;;;;15.02;100.00;99313.88;5093194;28;20131;-48
2022/11/10 03:24:40;;;;;;;0.03;0.03;;;;;;;14.95;100.00;99313.91;5093450;28;20099;-47
2022/11/10 03:27:06;;;;;;;0.32;0.32;;;;;;;15.01;100.00;99314.91;5091950;28;20394;-48
2022/11/10 03:29:31;;;;;;;0.00;0.00;;;;;;;15.01;100.00;99311.44;5093386;28;20129;-48
2022/11/10 03:31:57;;;;;;;0.00;0.00;;;;;;;15.04;100.00;99322.38;5093311;28;20024;-48
2022/11/10 03:34:23;;;;;;;0.22;0.22;;;;;;;15.02;100.00;99324.44;5093289;28;20073;-48
2022/11/10 03:36:49;;;;;;;0.00;0.00;;;;;;;14.96;100.00;99323.44;5093229;28;20028;-48
2022/11/10 03:39:14;;;;;;;0.00;0.00;;;;;;;14.90;100.00;99321.66;5093163;28;20024;-48
2022/11/10 03:41:40;;;;;;;0.00;0.00;;;;;;;14.92;100.00;99330.19;5093122;28;20035;-48
2022/11/10 03:44:06;;;;;;;0.00;0.00;;;;;;;14.91;100.00;99333.88;5093059;28;20024;-48
2022/11/10 03:46:32;;;;;;;7.03;2.13;;;;;;;14.80;100.00;99328.44;5091607;28;20016;-48
2022/11/10 03:48:57;;;;;;;0.00;0.00;;;;;;;14.76;100.00;99326.22;5093003;28;20398;-48
2022/11/10 03:51:23;;;;;;;0.00;0.00;;;;;;;14.74;100.00;99325.59;5092924;28;20012;-48
2022/11/10 03:53:49;;;;;;;0.03;0.03;;;;;;;14.79;100.00;99325.00;5091553;28;20028;-48
2022/11/10 03:56:15;;;;;;;0.22;0.22;;;;;;;14.89;100.00;99327.97;5091148;28;20168;-48
2022/11/10 03:58:40;;;;;;;0.17;0.17;;;;;;;14.97;100.00;99338.31;5091491;28;20046;-48
2022/11/10 04:01:07;;;;;;;0.17;0.17;;;;;;;14.90;100.00;99342.81;5092757;28;20031;-48
2022/11/10 04:03:32;;;;;;;1.15;0.63;;;;;;;14.70;100.00;99342.09;5092795;28;20443;-48
2022/11/10 04:09:00;;;;;;;0.00;0.00;;;;;;;14.58;100.00;99347.22;5092689;28;20088;-48
2022/11/10 04:17:00;;;;;;;0.00;0.00;;;;;;;14.62;100.00;99361.63;5091731;28;20085;-48
2022/11/10 04:19:26;;;;;;;0.00;0.00;;;;;;;14.72;100.00;99369.13;5092739;28;20115;-48
2022/11/10 04:21:52;;;;;;;0.05;0.05;;;;;;;14.68;100.00;99354.72;5092154;28;20548;-48
2022/11/10 04:24:18;;;;;;;0.00;0.00;;;;;;;14.74;100.00;99359.16;5091096;28;20020;-48
2022/11/10 04:26:44;;;;;;;0.00;0.00;;;;;;;14.69;100.00;99359.78;5092260;28;20030;-48
2022/11/10 04:29:11;;;;;;;0.00;0.00;;;;;;;14.69;100.00;99362.44;5091020;28;20119;-48
2022/11/10 04:31:39;;;;;;;0.10;0.10;;;;;;;14.67;100.00;99361.84;5090919;28;20505;-48
2022/11/10 04:34:07;;;;;;;0.00;0.00;;;;;;;14.65;100.00;99368.31;5090915;28;20042;-48
2022/11/10 04:36:35;;;;;;;0.00;0.00;;;;;;;14.66;100.00;99368.13;5074398;28;20067;-48
2022/11/10 04:39:01;;;;;;;0.52;0.52;;;;;;;14.64;100.00;99385.22;5092373;28;20386;-47
2022/11/10 04:41:29;;;;;;;0.00;0.00;;;;;;;14.60;100.00;99384.00;5090793;28;20500;-48
2022/11/10 04:43:55;;;;;;;0.00;0.00;;;;;;;14.57;100.00;99387.88;5092295;28;20024;-48
2022/11/10 04:46:26;;;;;;;0.00;0.00;;;;;;;14.58;100.00;99389.50;5090677;28;20405;-48
2022/11/10 04:48:53;;;;;;;0.00;0.00;;;;;;;14.57;100.00;99387.88;5090707;28;20023;-48
2022/11/10 04:51:21;;;;;;;0.00;0.00;;;;;;;14.60;100.00;99387.47;5090668;28;20024;-48
2022/11/10 04:53:47;;;;;;;0.10;0.10;;;;;;;14.81;100.00;99396.94;5074010;28;20023;-48
2022/11/10 04:56:18;;;;;;;0.00;0.00;;;;;;;14.78;100.00;99390.22;5091906;28;20170;-48
2022/11/10 04:58:43;;;;;;;0.70;0.70;;;;;;;14.80;100.00;99391.84;5090604;28;20120;-48
2022/11/10 05:01:19;;;;;;;0.00;0.00;;;;;;;14.87;100.00;99385.53;5091909;28;20454;-48
2022/11/10 05:03:44;;;;;;;;;;;;;;;14.77;100.00;99393.91;5092298;28;20103;-48
2022/11/10 05:06:10;;;;;;;0.00;0.00;;;;;;;14.66;100.00;99399.03;5090554;28;20014;-48
2022/11/10 05:08:38;;;;;;;0.28;0.28;;;;;;;14.58;100.00;99403.50;5094036;28;20486;-48
2022/11/10 05:11:07;;;;;;;0.00;0.00;;;;;;;14.47;100.00;99396.22;5096074;28;20020;-48
2022/11/10 05:13:32;;;;;;;3.42;0.65;;;;;;;14.72;100.00;99396.34;5096030;28;20028;-48
2022/11/10 05:15:58;;;;;;;0.20;0.20;;;;;;;14.89;100.00;99407.28;5094835;28;20032;-48
2022/11/10 05:18:24;;;;;;;0.00;0.00;;;;;;;14.78;100.00;99406.06;5094577;28;20020;-48
2022/11/10 05:20:52;;;;;;;0.00;0.00;;;;;;;14.85;100.00;99408.72;5094512;28;20502;-47
2022/11/10 05:23:40;;;;;;;0.00;0.00;;;;;;;14.98;100.00;99413.91;5094458;28;20043;-48
2022/11/10 05:26:11;;;;;;;7.68;1.50;;;;;;;14.95;100.00;99411.72;5095942;28;20032;-48
2022/11/10 05:28:39;;;;;;;0.00;0.00;;;;;;;14.83;100.00;99412.56;5095646;28;20024;-48
2022/11/10 05:31:06;;;;;;;0.00;0.00;;;;;;;14.72;100.00;99419.31;5095901;28;20028;-47
2022/11/10 05:33:32;;;;;;;0.00;0.00;;;;;;;14.63;100.00;99420.56;5094319;28;20556;-48
2022/11/10 05:35:57;;;;;;;0.00;0.00;;;;;;;14.49;99.75;99415.31;5094248;28;20067;-47
2022/11/10 05:38:23;;;;;;;0.00;0.00;;;;;;;14.45;100.00;99422.03;5094261;28;20044;-47
2022/11/10 05:40:49;;;;;;;0.00;0.00;;;;;;;14.43;100.00;99426.69;5095445;28;20016;-48
2022/11/10 05:43:15;;;;;;;0.00;0.00;;;;;;;14.37;100.00;99427.53;5095712;28;20020;-48
2022/11/10 05:45:41;;;;;;;0.00;0.00;;;;;;;14.33;100.00;99427.13;5094047;28;20032;-48
2022/11/10 05:48:07;;;;;;;0.00;0.00;;;;;;;14.38;100.00;99431.78;5095319;28;20065;-48
2022/11/10 05:50:32;;;;;;;0.35;0.35;;;;;;;14.48;100.00;99426.06;5095283;28;20028;-47
2022/11/10 05:52:58;;;;;;;0.00;0.00;;;;;;;14.50;100.00;99432.75;5095263;28;20040;-47
2022/11/10 05:55:26;;;;;;;0.00;0.00;;;;;;;14.45;100.00;99432.59;5093889;28;20031;-47
2022/11/10 05:57:53;;;;;;;0.00;0.00;;;;;;;14.38;100.00;99431.78;5095195;28;20035;-48
2022/11/10 06:00:22;;;;;;;1.65;0.65;;;;;;;14.43;100.00;99442.56;5095141;28;20024;-47
2022/11/10 06:03:03;;;;;;;0.10;0.10;;;;;;;14.36;99.01;99437.25;5095349;28;20024;-48
2022/11/10 06:05:34;;;;;;;0.15;0.15;;;;;;;14.24;98.67;99435.47;5093715;28;20055;-48
2022/11/10 06:08:01;;;;;;;0.10;0.10;;;;;;;14.23;98.65;99444.41;5094958;28;20058;-48
2022/11/10 06:10:27;;;;;;;0.10;0.10;;;;;;;14.22;98.46;99443.59;5093657;28;20030;-48
2022/11/10 06:12:53;;;;;;;0.10;0.10;;;;;;;14.15;97.30;99448.88;5095462;28;20111;-47
2022/11/10 06:15:19;;;;;;;0.00;0.00;;;;;;;14.09;96.52;99448.91;5094822;28;20078;-48
2022/11/10 06:17:45;;;;;;;0.10;0.10;;;;;;;14.12;97.08;99449.28;5094761;28;20489;-47
2022/11/10 06:20:13;;;;;;;0.00;0.00;;;;;;;14.15;97.22;99450.72;5093156;28;20024;-47
2022/11/10 06:22:39;;;;;;;0.00;0.00;;;;;;;14.28;97.63;99453.31;5093245;28;20048;-47
2022/11/10 06:25:05;;;;;;;0.13;0.13;;;;;;;14.27;97.06;99457.00;5093681;28;20020;-47
2022/11/10 06:27:30;;;;;;;0.25;0.22;;;;;;;14.18;96.31;99456.41;5093373;28;20024;-47
2022/11/10 06:29:56;;;;;;;0.00;0.00;;;;;;;14.21;96.75;99465.75;5094614;28;20505;-47
2022/11/10 06:32:22;;;;;;;0.00;0.00;;;;;;;14.35;97.19;99471.81;5094492;28;20032;-48
2022/11/10 06:34:48;;;;;;;0.10;0.10;;;;;;;14.30;96.65;99471.59;5094467;28;20023;-47
2022/11/10 06:37:13;;;;;;;0.15;0.10;;;;;;;14.27;97.03;99477.31;5094427;28;20024;-47
2022/11/10 06:39:39;;;;;;;0.05;0.05;;;;;;;14.26;97.25;99478.31;5093085;28;20024;-48
2022/11/10 06:42:05;;;;;;;0.00;0.00;;;;;;;14.30;97.86;99490.09;5094357;28;20032;-48
2022/11/10 06:44:30;;;;;;;0.15;0.15;;;;;;;14.16;96.50;99498.00;5076155;28;20016;-48
2022/11/10 06:46:56;;;;;;;16.45;1.77;;;;;;;13.97;96.25;99496.19;5094205;28;20024;-48
2022/11/10 06:49:22;;;;;;;0.00;0.00;;;;;;;13.95;96.94;99491.13;5094207;28;20569;-47
2022/11/10 06:51:47;;;;;;;0.20;0.20;;;;;;;13.98;96.34;99492.53;5094141;28;20032;-47
2022/11/10 06:54:13;;;;;;;0.35;0.35;;;;;;;14.02;96.39;99506.13;5094104;28;20051;-48
2022/11/10 06:56:39;;;;;;;0.00;0.00;;;;;;;14.03;96.07;99515.69;5094014;28;20028;-48
2022/11/10 06:59:04;;;;;;;0.00;0.00;;;;;;;14.03;96.10;99518.34;5094051;28;20028;-47
2022/11/10 07:01:30;;;;;;;0.05;0.05;;;;;;;14.04;95.83;99515.47;5092763;28;20031;-48
2022/11/10 07:03:55;;;;;;;0.00;0.00;;;;;;;14.02;95.16;99528.06;5094184;28;20016;-47
2022/11/10 07:06:21;;;;;;;0.65;0.63;;;;;;;13.93;94.67;99522.16;5093727;28;20069;-48
2022/11/10 07:08:47;;;;;;;0.17;0.17;;;;;;;13.90;94.74;99524.38;5092467;28;20081;-48
2022/11/10 07:11:14;;;;;;;1.70;0.77;;;;;;;13.84;93.93;99522.56;5092392;28;20030;-47
2022/11/10 07:13:40;;;;;;;0.10;0.10;;;;;;;13.81;94.48;99529.06;5092411;28;20487;-47
2022/11/10 07:16:07;;;;;;;0.00;0.00;;;;;;;13.86;94.81;99533.72;5092354;28;20057;-48
2022/11/10 07:18:33;;;;;;;2.90;2.70;;;;;;;13.89;94.81;99528.06;5093893;28;20482;-48
2022/11/10 07:21:02;;;;;;;1.13;1.13;;;;;;;13.83;93.93;99529.66;5093536;28;20028;-47
2022/11/10 07:23:27;;;;;;;0.45;0.22;;;;;;;13.85;94.21;99534.75;5093310;28;20040;-48
2022/11/10 07:25:53;;;;;;;0.80;0.80;;;;;;;13.86;93.71;99541.63;5093460;28;20551;-48
2022/11/10 07:28:19;;;;;;;0.73;0.73;;;;;;;13.77;93.32;99548.94;5092090;28;20024;-48
2022/11/10 07:30:44;;;;;;;2.83;0.80;;;;;;;13.77;93.95;99554.22;5091285;28;20020;-48
2022/11/10 07:33:13;;;;;;;0.63;0.63;;;;;;;13.74;93.46;99557.25;5093316;28;20031;-48
2022/11/10 07:35:39;;;;;;;0.00;0.00;;;;;;;13.77;94.25;99559.50;5091937;28;20024;-47
2022/11/10 07:38:08;;;;;;;0.10;0.10;;;;;;;13.85;94.56;99563.78;5091910;28;20031;-47
2022/11/10 07:40:34;;;;;;;0.55;0.55;;;;;;;13.91;93.90;99557.69;5093138;28;20043;-48
2022/11/10 07:43:00;;;;;;;0.10;0.10;;;;;;;14.11;94.57;99561.16;5093145;28;20490;-47
2022/11/10 07:45:26;;;;;;;0.00;0.00;;;;;;;14.16;93.10;99565.84;5093127;28;20027;-48
2022/11/10 07:48:04;;;;;;;0.43;0.40;;;;;;;14.13;92.31;99567.06;5091639;28;20032;-48
2022/11/10 07:50:32;;;;;;;0.20;0.20;;;;;;;14.11;92.86;99574.38;5093052;28;20077;-47
2022/11/10 07:53:14;;;;;;;1.75;1.17;;;;;;;14.12;92.70;99581.25;5092959;28;20027;-47
2022/11/10 07:55:42;;;;;;;0.05;0.05;;;;;;;14.05;92.04;99584.94;5091560;28;20067;-48
2022/11/10 07:58:09;;;;;;;0.17;0.17;;;;;;;14.01;91.70;99604.81;5092823;28;20028;-47
2022/11/10 08:00:36;;;;;;;0.10;0.10;;;;;;;13.93;92.22;99595.25;5092832;28;20034;-47
2022/11/10 08:03:13;;;;;;;0.00;0.00;;;;;;;14.01;93.45;99602.97;5092796;28;20150;-47
2022/11/10 08:05:39;;;;;;;0.00;0.00;;;;;;;14.10;93.19;99606.25;5092671;28;20099;-48
2022/11/10 08:08:05;;;;;;;0.25;0.25;;;;;;;13.97;91.91;99604.41;5091294;28;20111;-48
2022/11/10 08:10:32;;;;;;;1.98;1.58;;;;;;;13.92;92.51;99610.28;5092654;28;20024;-48
2022/11/10 08:13:01;;;;;;;0.30;0.30;;;;;;;13.91;92.29;99611.28;5092631;28;20020;-48
2022/11/10 08:15:29;;;;;;;0.05;0.05;;;;;;;13.90;92.27;99608.84;5092554;28;20016;-48
2022/11/10 08:18:00;;;;;;;0.52;0.52;;;;;;;13.93;92.92;99611.09;5091212;28;20028;-48
2022/11/10 08:20:26;;;;;;;0.15;0.15;;;;;;;13.88;91.85;99610.84;5092349;28;20017;-48
2022/11/10 08:23:03;;;;;;;0.10;0.10;;;;;;;13.89;92.23;99620.41;5092192;28;20044;-48
2022/11/10 08:25:31;;;;;;;0.00;0.00;;;;;;;13.92;92.68;99620.84;5092335;28;20031;-47
2022/11/10 08:28:02;;;;;;;0.00;0.00;;;;;;;13.94;92.85;99618.81;5092325;28;20520;-48
2022/11/10 08:30:28;;;;;;;0.00;0.00;;;;;;;13.91;93.60;99626.31;5091041;28;20126;-47
2022/11/10 08:32:59;;;;;;;0.00;0.00;;;;;;;13.98;94.28;99622.69;5090976;28;20493;-48
2022/11/10 08:35:27;;;;;;;0.00;0.00;;;;;;;14.09;94.05;99621.28;5092247;28;20062;-48
2022/11/10 08:37:53;;;;;;;0.15;0.15;;;;;;;14.19;93.77;99618.25;5092302;28;20039;-48
2022/11/10 08:40:21;;;;;;;0.45;0.35;;;;;;;14.23;93.63;99619.47;5092081;28;20024;-47
2022/11/10 08:42:47;;;;;;;0.00;0.00;;;;;;;14.33;93.41;99613.81;5090728;28;20126;-48
2022/11/10 08:45:13;;;;;;;0.45;0.45;;;;;;;14.40;93.28;99622.53;5092344;28;20048;-47
2022/11/10 08:47:39;;;;;;;0.00;0.00;;;;;;;14.48;93.08;99624.16;5090672;28;20559;-48
2022/11/10 08:50:06;;;;;;;0.00;0.00;;;;;;;14.51;91.54;99621.94;5092045;28;20020;-47
2022/11/10 08:52:32;;;;;;;0.05;0.05;;;;;;;14.51;90.30;99621.13;5091966;28;20465;-48
2022/11/10 08:54:58;;;;;;;3.33;1.65;;;;;;;14.48;90.16;99621.53;5092000;28;20056;-48
2022/11/10 08:57:24;;;;;;;0.00;0.00;;;;;;;14.47;89.12;99625.19;5090580;28;20119;-47
2022/11/10 08:59:49;;;;;;;19.77;2.08;;;;;;;14.41;88.81;99629.44;5091923;28;20073;-48
2022/11/10 09:02:15;;;;;;;0.00;0.00;;;;;;;14.38;88.82;99632.47;5090622;28;20055;-48
2022/11/10 09:04:41;;;;;;;0.13;0.13;;;;;;;14.32;88.92;99649.13;5091871;28;20024;-48
2022/11/10 09:07:06;;;;;;;0.00;0.00;;;;;;;14.30;89.26;99645.88;5091819;28;20085;-48
2022/11/10 09:09:32;;;;;;;0.05;0.05;;;;;;;14.30;89.63;99653.81;5091848;28;20095;-48
2022/11/10 09:11:58;;;;;;;0.00;0.00;;;;;;;14.29;88.63;99649.53;5091809;28;20035;-47
2022/11/10 09:14:23;;;;;;;0.20;0.20;;;;;;;14.28;88.59;99647.91;5091792;28;20059;-47
2022/11/10 09:16:49;;;;;;;0.28;0.28;;;;;;;14.29;89.47;99663.56;5091715;28;20049;-47
2022/11/10 09:19:15;;;;;;;0.50;0.50;;;;;;;14.25;89.15;99664.16;5091650;28;20388;-47
2022/11/10 09:21:40;;;;;;;0.00;0.00;;;;;;;14.21;89.08;99666.38;5091648;28;20052;-48
2022/11/10 09:24:06;;;;;;;0.05;0.05;;;;;;;14.24;90.17;99665.97;5091784;28;20032;-48
2022/11/10 09:26:33;;;;;;;0.00;0.00;;;;;;;14.33;90.01;99659.50;5090254;28;20024;-48
2022/11/10 09:28:58;;;;;;;0.05;0.05;;;;;;;14.31;89.57;99673.94;5091674;28;20028;-48
2022/11/10 09:31:24;;;;;;;0.30;0.30;;;;;;;14.25;89.52;99666.81;5091606;28;20028;-48
2022/11/10 09:33:50;;;;;;;1.17;1.13;;;;;;;14.24;89.74;99670.44;5091538;28;20062;-47
2022/11/10 09:36:15;;;;;;;0.00;0.00;;;;;;;14.27;90.46;99673.50;5091655;28;20085;-48
2022/11/10 09:38:41;;;;;;;1.45;1.23;;;;;;;14.34;89.50;99670.88;5091486;28;20035;-48
2022/11/10 09:41:11;;;;;;;0.00;0.00;;;;;;;14.39;89.05;99679.03;5090268;28;20501;-48
2022/11/10 09:44:00;;;;;;;0.08;0.08;;;;;;;14.35;88.92;99683.06;5091507;28;20432;-47
2022/11/10 09:46:41;;;;;;;0.00;0.00;;;;;;;14.29;88.46;99691.78;5073589;28;20028;-48
2022/11/10 09:49:34;;;;;;;0.00;0.00;;;;;;;14.33;88.65;99690.38;5091548;28;20040;-47
2022/11/10 09:52:02;;;;;;;0.00;0.00;;;;;;;14.34;87.84;99689.34;5091472;28;20020;-48
2022/11/10 09:54:42;;;;;;;0.10;0.10;;;;;;;14.33;89.00;99690.38;5091824;28;20397;-47
2022/11/10 09:57:14;;;;;;;1.65;1.35;;;;;;;14.41;88.09;99692.00;5095287;28;20545;-48
2022/11/10 09:59:43;;;;;;;0.00;0.00;;;;;;;14.48;87.40;99691.00;5095227;28;20170;-48
2022/11/10 10:02:21;;;;;;;0.30;0.30;;;;;;;14.49;86.24;99694.47;5095103;28;20035;-47
2022/11/10 10:05:09;;;;;;;0.22;0.22;;;;;;;14.45;87.22;99691.41;5095181;28;20510;-48
2022/11/10 10:07:56;;;;;;;1.90;1.05;;;;;;;14.56;87.72;99701.41;5095018;28;20024;-48
2022/11/10 10:10:34;;;;;;;0.17;0.17;;;;;;;14.53;87.42;99693.06;5093719;28;20081;-48
2022/11/10 10:13:15;;;;;;;0.15;0.15;;;;;;;14.36;87.03;99692.59;5094919;28;20020;-48
2022/11/10 10:15:59;;;;;;;0.00;0.00;;;;;;;14.30;86.93;99699.50;5094808;28;20555;-47
2022/11/10 10:18:37;;;;;;;0.00;0.00;;;;;;;14.37;87.36;99702.16;5094841;28;20035;-48
2022/11/10 10:21:55;;;;;;;0.70;0.70;;;;;;;14.53;87.13;99709.72;5094843;28;20371;-47
2022/11/10 10:24:26;;;;;;;0.45;0.35;;;;;;;14.59;86.53;99716.06;5064680;28;20048;-48
2022/11/10 10:26:55;;;;;;;0.20;0.20;;;;;;;14.64;86.08;99710.97;5094895;28;20147;-48
2022/11/10 10:29:30;;;;;;;0.05;0.05;;;;;;;14.63;85.36;99711.16;5094596;28;20021;-47
2022/11/10 10:31:57;;;;;;;;;;;;;;;14.63;86.39;99716.44;5095013;28;20048;-47
2022/11/10 10:34:27;;;;;;;0.08;0.08;;;;;;;14.63;83.74;99717.28;5094423;28;19911;-47
2022/11/10 10:36:53;;;;;;;0.05;0.05;;;;;;;14.63;83.88;99716.44;5093114;28;20043;-47
2022/11/10 10:39:43;;;;;;;0.40;0.40;;;;;;;14.55;84.25;99717.44;5094393;28;20510;-48
2022/11/10 10:42:25;;;;;;;0.00;0.00;;;;;;;14.43;84.41;99714.56;5093082;28;20044;-48
2022/11/10 10:45:23;;;;;;;0.10;0.10;;;;;;;14.41;83.78;99713.97;5093069;28;20039;-48
2022/11/10 10:47:52;;;;;;;0.00;0.00;;;;;;;14.50;83.27;99722.50;5094117;28;20055;-48
2022/11/10 10:50:23;;;;;;;0.10;0.10;;;;;;;14.54;83.60;99713.16;5092838;28;20074;-47
2022/11/10 10:53:14;;;;;;;0.00;0.00;;;;;;;14.60;84.00;99706.31;5094178;28;20028;-48
2022/11/10 10:55:53;;;;;;;0.00;0.00;;;;;;;14.75;83.68;99707.75;5083335;28;20387;-47
2022/11/10 10:58:23;;;;;;;0.00;0.00;;;;;;;14.91;83.85;99697.78;5094091;28;20032;-48
2022/11/10 11:00:51;;;;;;;0.00;0.00;;;;;;;15.19;83.78;99713.41;5092708;28;20028;-48
2022/11/10 11:03:38;;;;;;;0.03;0.03;;;;;;;15.21;81.14;99714.03;5092628;28;20116;-48
2022/11/10 11:06:15;;;;;;;0.00;0.00;;;;;;;15.20;81.71;99711.59;5092787;28;20024;-48
2022/11/10 11:09:08;;;;;;;0.00;0.00;;;;;;;15.36;81.71;99709.34;5093956;28;20460;-48
2022/11/10 11:11:41;;;;;;;0.00;0.00;;;;;;;15.54;79.73;99716.63;5093833;28;20056;-48
2022/11/10 11:14:28;;;;;;;0.05;0.05;;;;;;;15.55;77.76;99718.25;5093779;28;20115;-48
2022/11/10 11:16:57;;;;;;;0.00;0.00;;;;;;;15.71;79.25;99711.69;5093607;28;20024;-48
2022/11/10 11:19:35;;;;;;;0.00;0.00;;;;;;;15.68;78.96;99709.47;5092392;28;20040;-48
2022/11/10 11:22:14;;;;;;;0.00;0.00;;;;;;;15.91;79.99;99718.78;5093370;28;20422;-48
2022/11/10 11:25:00;;;;;;;0.00;0.00;;;;;;;16.04;79.05;99713.44;5093632;28;20100;-48
2022/11/10 11:27:39;;;;;;;0.93;0.90;;;;;;;16.18;79.34;99722.94;5078046;28;20043;-48
2022/11/10 11:30:11;;;;;;;0.20;0.20;;;;;;;16.18;79.51;99719.50;5093521;28;20027;-48
2022/11/10 11:32:57;;;;;;;0.38;0.38;;;;;;;16.20;80.46;99721.91;5093718;28;20052;-48
2022/11/10 11:35:26;;;;;;;0.88;0.60;;;;;;;16.23;79.65;99722.31;5093640;28;20048;-48
2022/11/10 11:38:00;;;;;;;0.00;0.00;;;;;;;16.14;79.65;99718.28;5093303;28;20478;-48
2022/11/10 11:40:47;;;;;;;0.00;0.00;;;;;;;16.11;78.42;99716.06;5093249;28;20062;-48
2022/11/10 11:43:23;;;;;;;0.00;0.00;;;;;;;16.08;78.22;99716.50;5093241;28;20549;-48
2022/11/10 11:46:06;;;;;;;0.13;0.13;;;;;;;16.01;78.84;99707.75;5093235;28;20073;-47
2022/11/10 11:48:56;;;;;;;0.00;0.00;;;;;;;16.02;79.42;99712.84;5091790;28;20032;-47